Time;durP1;ratioP1;P1;durP2;ratioP2;P2;SDS_P1;SDS_P2;PMS_P1;PMS_P2;Temp;Humidity;BMP_temperature;BMP_pressure;BME280_temperature;BME280_humidity;BME280_pressure;Samples;Min_cycle;Max_cycle;Signal;HPM_P1;HPM_P2
2022/02/13 11:30:50;;;;;;;16.35;12.57;;;19.00;60.90;;;;;;5051243;28;20991;-60
2022/02/13 11:33:35;;;;;;;15.32;12.90;;;19.40;56.40;;;;;;5040072;28;20025;-60
2022/02/13 11:36:44;;;;;;;19.38;13.43;;;19.40;56.40;;;;;;5054448;28;20056;-60
2022/02/13 11:39:11;;;;;;;18.95;12.57;;;19.40;56.30;;;;;;5027862;28;20165;-60
2022/02/13 11:41:46;;;;;;;18.02;13.52;;;19.40;56.40;;;;;;5060733;28;20021;-60
2022/02/13 11:44:32;;;;;;;;;;;19.50;56.40;;;;;;5030917;28;20576;-60
2022/02/13 11:47:00;;;;;;;21.40;14.15;;;19.50;56.40;;;;;;5052230;28;20305;-60
2022/02/13 11:49:26;;;;;;;17.58;13.98;;;19.50;56.40;;;;;;5047461;28;20037;-59
2022/02/13 11:51:57;;;;;;;17.80;14.48;;;19.60;56.50;;;;;;5042154;28;20048;-60
2022/02/13 11:54:38;;;;;;;19.05;14.00;;;19.60;56.30;;;;;;5037352;28;20030;-60
2022/02/13 11:57:05;;;;;;;20.00;14.10;;;19.60;56.10;;;;;;5043409;28;20402;-59
2022/02/13 11:59:56;;;;;;;20.63;15.30;;;19.60;57.30;;;;;;5027962;28;20026;-60
2022/02/13 12:02:31;;;;;;;17.67;14.38;;;19.60;56.10;;;;;;5045025;28;20029;-60
2022/02/13 12:05:06;;;;;;;19.85;14.90;;;19.60;56.10;;;;;;5041183;28;20715;-60
2022/02/13 12:07:38;;;;;;;18.65;15.07;;;19.70;56.10;;;;;;5046873;28;20031;-60
2022/02/13 12:10:13;;;;;;;20.73;15.70;;;19.70;56.00;;;;;;5041854;28;20043;-60
2022/02/13 12:12:42;;;;;;;20.17;14.95;;;19.70;56.10;;;;;;5043602;28;20501;-60
2022/02/13 12:15:08;;;;;;;19.30;15.27;;;19.70;56.00;;;;;;5049250;28;20033;-60
2022/02/13 12:17:34;;;;;;;21.35;15.85;;;19.80;55.90;;;;;;5049120;28;20036;-60
2022/02/13 12:20:04;;;;;;;22.63;17.08;;;19.90;55.80;;;;;;5042438;28;20026;-60
2022/02/13 12:22:30;;;;;;;20.83;16.67;;;19.90;55.70;;;;;;5042399;28;20118;-59
2022/02/13 12:24:59;;;;;;;23.48;18.42;;;19.90;55.70;;;;;;5044311;28;20102;-60
2022/02/13 12:27:25;;;;;;;27.40;18.95;;;19.90;55.70;;;;;;5045338;28;20025;-60
2022/02/13 12:29:53;;;;;;;25.42;19.20;;;20.00;55.60;;;;;;5045579;28;20049;-60
2022/02/13 12:32:19;;;;;;;24.15;19.55;;;20.00;55.60;;;;;;5052260;28;20022;-60
2022/02/13 12:35:13;;;;;;;24.95;20.25;;;20.00;55.60;;;;;;5040921;28;20041;-60
2022/02/13 12:37:44;;;;;;;27.48;19.83;;;20.00;56.10;;;;;;5042044;28;20029;-60
2022/02/13 12:40:20;;;;;;;24.85;20.60;;;20.10;57.10;;;;;;5035941;28;20048;-60
2022/02/13 12:42:50;;;;;;;30.60;20.00;;;20.10;56.90;;;;;;5029323;28;20520;-60
2022/02/13 12:45:23;;;;;;;30.58;20.13;;;20.10;56.40;;;;;;5029811;28;20033;-60
2022/02/13 12:47:55;;;;;;;21.25;17.48;;;20.10;56.90;;;;;;5032646;28;20119;-60
2022/02/13 12:50:22;;;;;;;24.05;19.00;;;20.10;56.50;;;;;;5036304;28;20519;-60
2022/02/13 12:52:48;;;;;;;26.73;18.67;;;20.00;56.40;;;;;;5034715;28;20550;-60
2022/02/13 12:55:16;;;;;;;20.65;18.00;;;20.10;56.30;;;;;;5022122;28;20036;-60
2022/02/13 12:57:45;;;;;;;24.00;18.10;;;20.10;56.30;;;;;;5029647;28;20455;-60
2022/02/13 13:00:22;;;;;;;21.58;17.50;;;20.10;56.30;;;;;;5012741;28;20393;-60
2022/02/13 13:03:08;;;;;;;29.35;25.70;;;20.00;56.30;;;;;;5026462;28;20027;-60
2022/02/13 13:05:41;;;;;;;53.72;47.05;;;20.00;56.30;;;;;;5030549;28;20072;-60
2022/02/13 13:08:18;;;;;;;73.95;65.97;;;20.00;56.40;;;;;;5028190;28;20045;-60
2022/02/13 13:10:48;;;;;;;101.45;87.28;;;20.00;56.50;;;;;;5024787;28;20045;-60
2022/02/13 13:13:17;;;;;;;123.40;108.70;;;20.00;56.50;;;;;;5028674;28;20022;-60
2022/02/13 13:16:04;;;;;;;144.18;120.05;;;20.00;56.50;;;;;;5028213;28;20462;-60
2022/02/13 13:18:49;;;;;;;137.85;121.38;;;20.00;56.60;;;;;;5021646;28;20494;-60
2022/02/13 13:21:24;;;;;;;141.77;121.45;;;20.00;56.60;;;;;;5021924;28;20045;-60
2022/02/13 13:24:09;;;;;;;127.57;113.45;;;19.90;56.60;;;;;;5029814;28;20033;-60
2022/02/13 13:26:35;;;;;;;;;;;20.00;56.70;;;;;;5034763;28;20547;-60
2022/02/13 13:29:32;;;;;;;123.47;109.93;;;19.90;56.70;;;;;;5026402;28;19917;-60
2022/02/13 13:31:59;;;;;;;120.20;106.47;;;19.90;56.70;;;;;;5037553;28;20394;-60
2022/02/13 13:34:26;;;;;;;120.72;107.90;;;19.90;56.70;;;;;;5034218;28;20478;-60
2022/02/13 13:36:52;;;;;;;115.55;102.93;;;19.90;56.90;;;;;;5034573;28;20485;-60
2022/02/13 13:39:31;;;;;;;109.63;97.72;;;19.90;56.90;;;;;;5027581;28;20037;-60
2022/02/13 13:41:58;;;;;;;109.55;97.68;;;19.90;57.00;;;;;;5026049;28;20149;-60
2022/02/13 13:44:29;;;;;;;109.78;98.00;;;19.90;57.20;;;;;;5043642;28;20048;-60
2022/02/13 13:46:55;;;;;;;109.07;97.13;;;19.90;57.10;;;;;;5028419;28;20014;-60
2022/02/13 13:49:20;;;;;;;107.07;96.00;;;19.90;57.20;;;;;;5034184;28;20064;-60
2022/02/13 13:51:46;;;;;;;110.80;98.68;;;19.80;57.30;;;;;;5033055;28;20056;-60
2022/02/13 13:54:13;;;;;;;103.55;92.60;;;19.70;57.70;;;;;;5028206;28;20183;-60
2022/02/13 13:56:40;;;;;;;102.20;91.28;;;19.80;57.50;;;;;;5027963;28;20033;-60
2022/02/13 13:59:06;;;;;;;99.78;89.20;;;19.70;57.30;;;;;;5046563;28;20497;-60
2022/02/13 14:01:31;;;;;;;102.43;91.63;;;19.70;57.40;;;;;;5032148;28;20036;-60
2022/02/13 14:03:57;;;;;;;102.88;92.10;;;19.70;57.30;;;;;;5035014;28;20039;-60
2022/02/13 14:06:24;;;;;;;100.88;90.38;;;19.70;57.40;;;;;;5036011;28;20033;-58
2022/02/13 14:08:50;;;;;;;97.68;87.50;;;19.70;57.40;;;;;;5032081;28;20425;-60
2022/02/13 14:11:16;;;;;;;96.75;86.53;;;19.70;57.40;;;;;;5039695;28;20024;-60
2022/02/13 14:13:41;;;;;;;98.10;88.10;;;19.70;57.40;;;;;;5026079;28;20107;-60
2022/02/13 14:16:07;;;;;;;93.15;83.50;;;19.70;57.50;;;;;;5028511;28;20079;-60
2022/02/13 14:18:32;;;;;;;90.03;80.65;;;19.60;57.60;;;;;;5031284;28;20032;-60
2022/02/13 14:20:58;;;;;;;90.57;81.20;;;19.60;57.80;;;;;;5036725;28;20030;-60
2022/02/13 14:23:24;;;;;;;87.45;78.95;;;19.60;57.90;;;;;;5025254;28;20017;-60
2022/02/13 14:25:49;;;;;;;87.45;78.32;;;19.60;58.20;;;;;;5021470;28;20053;-60
2022/02/13 14:28:15;;;;;;;84.53;75.85;;;19.60;58.60;;;;;;5027604;28;20022;-60
2022/02/13 14:30:41;;;;;;;77.53;69.72;;;19.50;58.60;;;;;;5025437;28;20425;-60
2022/02/13 14:33:06;;;;;;;76.90;68.88;;;19.50;58.20;;;;;;5025552;28;20522;-60
2022/02/13 14:35:33;;;;;;;77.50;69.32;;;19.50;58.00;;;;;;5028653;28;20536;-60
2022/02/13 14:37:59;;;;;;;75.65;68.05;;;19.60;59.10;;;;;;5026284;28;20041;-60
2022/02/13 14:40:25;;;;;;;75.82;68.15;;;19.60;58.60;;;;;;5025972;28;20397;-60
2022/02/13 14:42:50;;;;;;;75.07;67.43;;;19.60;58.30;;;;;;5027214;28;20052;-60
2022/02/13 14:45:16;;;;;;;72.70;65.20;;;19.60;58.00;;;;;;5027083;28;20452;-60
2022/02/13 14:47:43;;;;;;;72.28;64.95;;;19.60;57.80;;;;;;5028595;28;20143;-60
2022/02/13 14:50:09;;;;;;;73.30;65.75;;;19.60;57.90;;;;;;5026205;28;20048;-60
2022/02/13 14:52:35;;;;;;;70.88;63.40;;;19.60;57.90;;;;;;5027149;28;20017;-60
2022/02/13 14:55:00;;;;;;;68.93;61.97;;;19.70;58.00;;;;;;5023099;28;20584;-60
2022/02/13 14:57:27;;;;;;;66.82;59.75;;;19.60;57.90;;;;;;5024684;28;20553;-59
2022/02/13 14:59:53;;;;;;;66.88;60.08;;;19.60;58.40;;;;;;5027433;28;20044;-60
2022/02/13 15:02:19;;;;;;;65.90;59.00;;;19.60;58.20;;;;;;5035803;28;20028;-60
2022/02/13 15:04:45;;;;;;;62.90;56.40;;;19.60;58.70;;;;;;5029139;28;20534;-60
2022/02/13 15:07:12;;;;;;;61.40;54.65;;;19.50;58.60;;;;;;5029993;28;20051;-60
2022/02/13 15:09:38;;;;;;;60.65;54.38;;;19.60;58.80;;;;;;5039040;28;20042;-60
2022/02/13 15:12:04;;;;;;;60.65;54.15;;;19.50;58.90;;;;;;5037879;28;20090;-60
2022/02/13 15:14:29;;;;;;;57.70;51.75;;;19.50;59.10;;;;;;5033085;28;20101;-61
2022/02/13 15:16:57;;;;;;;57.47;51.30;;;19.50;59.10;;;;;;5026402;28;20496;-61
2022/02/13 15:19:26;;;;;;;57.53;51.55;;;19.50;59.30;;;;;;5031870;28;20516;-59
2022/02/13 15:21:52;;;;;;;57.50;51.40;;;19.50;59.60;;;;;;5026951;28;20021;-60
2022/02/13 15:24:19;;;;;;;55.55;49.88;;;19.50;59.70;;;;;;5026417;28;20033;-62
2022/02/13 15:26:44;;;;;;;53.88;48.13;;;19.60;60.10;;;;;;5031262;28;20033;-61
2022/02/13 15:29:10;;;;;;;55.17;49.45;;;19.60;60.00;;;;;;5025775;28;20041;-61
2022/02/13 15:31:36;;;;;;;55.00;49.38;;;19.60;60.10;;;;;;5024057;28;20590;-60
2022/02/13 15:34:01;;;;;;;51.83;46.33;;;19.60;61.20;;;;;;5023377;28;20113;-60
2022/02/13 15:36:27;;;;;;;53.20;47.80;;;19.60;60.80;;;;;;5026614;28;20026;-60
2022/02/13 15:38:53;;;;;;;54.45;48.85;;;19.60;61.30;;;;;;5028742;28;20505;-61
2022/02/13 15:41:21;;;;;;;51.08;45.78;;;19.50;61.90;;;;;;5029425;28;20025;-61
2022/02/13 15:43:47;;;;;;;51.10;45.90;;;19.40;61.90;;;;;;5031914;28;20057;-60
2022/02/13 15:46:13;;;;;;;49.65;44.65;;;19.40;62.00;;;;;;5036322;28;20455;-61
2022/02/13 15:48:40;;;;;;;46.65;41.95;;;19.40;61.70;;;;;;5027533;28;20424;-60
2022/02/13 15:51:06;;;;;;;48.22;43.33;;;19.30;61.30;;;;;;5023790;28;20037;-61
2022/02/13 15:53:32;;;;;;;47.97;43.08;;;19.30;61.90;;;;;;5027794;28;20382;-61
2022/02/13 15:55:58;;;;;;;46.90;42.10;;;19.30;62.10;;;;;;5027104;28;20071;-61
2022/02/13 15:58:24;;;;;;;45.05;40.42;;;19.30;62.30;;;;;;5023244;28;20483;-61
2022/02/13 16:00:49;;;;;;;45.47;40.88;;;19.20;62.20;;;;;;5024196;28;20037;-61
2022/02/13 16:03:15;;;;;;;44.53;40.00;;;19.20;62.10;;;;;;5021337;28;20088;-61
2022/02/13 16:05:41;;;;;;;43.47;39.03;;;19.20;62.30;;;;;;5033972;28;20074;-61
2022/02/13 16:08:06;;;;;;;43.65;39.13;;;19.10;62.40;;;;;;5028052;28;20039;-61
2022/02/13 16:10:33;;;;;;;43.50;39.05;;;19.10;62.40;;;;;;5025619;28;20033;-61
2022/02/13 16:13:00;;;;;;;41.67;37.42;;;19.10;62.30;;;;;;5024466;28;20042;-61
2022/02/13 16:15:28;;;;;;;41.63;37.42;;;19.10;62.50;;;;;;5018379;28;20669;-61
2022/02/13 16:17:54;;;;;;;41.70;37.25;;;19.10;62.40;;;;;;5029698;28;20037;-61
2022/02/13 16:20:20;;;;;;;40.17;36.03;;;19.10;62.30;;;;;;5030726;28;20028;-62
2022/02/13 16:22:45;;;;;;;39.75;35.65;;;19.10;62.60;;;;;;5028285;28;20433;-60
2022/02/13 16:25:19;;;;;;;39.80;35.75;;;19.10;62.30;;;;;;5031268;28;20567;-61
2022/02/13 16:27:49;;;;;;;39.23;35.03;;;19.00;62.30;;;;;;5029932;28;20041;-60
2022/02/13 16:30:15;;;;;;;39.95;35.85;;;19.00;62.40;;;;;;5028498;28;20312;-60
2022/02/13 16:32:40;;;;;;;38.15;34.35;;;19.00;62.40;;;;;;5031779;28;20030;-60
2022/02/13 16:35:06;;;;;;;38.80;34.80;;;19.00;62.40;;;;;;5028980;28;20123;-60
2022/02/13 16:37:32;;;;;;;38.22;34.22;;;19.00;62.30;;;;;;5028364;28;20387;-60
2022/02/13 16:40:00;;;;;;;36.95;33.05;;;19.00;62.30;;;;;;5027518;28;20033;-60
2022/02/13 16:42:26;;;;;;;36.75;33.03;;;19.00;62.30;;;;;;5028954;28;20100;-60
2022/02/13 16:44:52;;;;;;;36.70;33.10;;;19.00;62.30;;;;;;5030228;28;20034;-61
2022/02/13 16:47:18;;;;;;;36.75;32.83;;;19.00;62.30;;;;;;5029423;28;20032;-60
2022/02/13 16:49:44;;;;;;;35.15;31.55;;;18.90;62.20;;;;;;5029404;28;20489;-60
2022/02/13 16:52:10;;;;;;;35.97;32.30;;;18.90;62.30;;;;;;5029263;28;20405;-60
2022/02/13 16:54:36;;;;;;;34.85;31.15;;;18.90;62.30;;;;;;5027407;28;20034;-60
2022/02/13 16:57:02;;;;;;;34.00;30.45;;;18.90;62.30;;;;;;5027798;28;20033;-60
2022/02/13 16:59:28;;;;;;;32.97;29.52;;;18.90;62.10;;;;;;5030097;28;20033;-61
2022/02/13 17:01:54;;;;;;;33.20;29.58;;;18.90;62.20;;;;;;5018621;28;20049;-60
2022/02/13 17:04:20;;;;;;;32.28;28.98;;;19.00;62.30;;;;;;5027680;28;20095;-61
2022/02/13 17:06:49;;;;;;;31.00;27.90;;;19.00;62.50;;;;;;5034017;28;20490;-61
2022/02/13 17:09:15;;;;;;;32.25;28.73;;;18.90;62.30;;;;;;5027867;28;20053;-60
2022/02/13 17:11:40;;;;;;;30.92;27.75;;;18.90;62.50;;;;;;5037120;28;20032;-60
2022/02/13 17:14:06;;;;;;;30.98;27.77;;;18.90;62.50;;;;;;5031592;28;20071;-61
2022/02/13 17:16:32;;;;;;;31.00;27.52;;;18.90;62.80;;;;;;5033238;28;20021;-60
2022/02/13 17:18:57;;;;;;;30.92;27.13;;;18.90;62.70;;;;;;5029446;28;20021;-61
2022/02/13 17:21:23;;;;;;;29.05;26.02;;;18.90;62.60;;;;;;5021586;28;20029;-61
2022/02/13 17:23:52;;;;;;;28.70;25.70;;;18.90;62.50;;;;;;5028520;28;20037;-61
2022/02/13 17:26:17;;;;;;;29.08;26.10;;;18.90;62.60;;;;;;5056350;28;20524;-61
2022/02/13 17:28:43;;;;;;;28.52;25.50;;;18.90;62.70;;;;;;5024519;28;20049;-61
2022/02/13 17:31:10;;;;;;;29.00;25.83;;;18.80;62.80;;;;;;5026203;28;20068;-61
2022/02/13 17:33:36;;;;;;;27.50;24.70;;;18.80;62.90;;;;;;5030821;28;20026;-61
2022/02/13 17:36:02;;;;;;;28.50;25.55;;;18.80;62.80;;;;;;5027006;28;20104;-60
2022/02/13 17:38:27;;;;;;;28.15;25.15;;;18.80;62.70;;;;;;5025072;28;20167;-61
2022/02/13 17:40:53;;;;;;;26.48;23.67;;;18.90;62.60;;;;;;5028487;28;20033;-61
2022/02/13 17:43:19;;;;;;;26.42;23.45;;;18.90;62.70;;;;;;5024355;28;20586;-59
2022/02/13 17:45:48;;;;;;;27.23;23.52;;;18.90;62.80;;;;;;5028369;28;20034;-59
2022/02/13 17:48:15;;;;;;;26.05;23.25;;;18.90;62.80;;;;;;5023766;28;20025;-60
2022/02/13 17:50:41;;;;;;;26.42;23.60;;;18.80;63.20;;;;;;5026508;28;20179;-61
2022/02/13 17:53:06;;;;;;;27.75;22.58;;;18.80;62.70;;;;;;5028296;28;20100;-60
2022/02/13 17:55:32;;;;;;;24.38;21.83;;;18.80;62.70;;;;;;5027010;28;20042;-60
2022/02/13 17:58:05;;;;;;;24.75;22.13;;;18.80;62.90;;;;;;5023658;28;20022;-60
2022/02/13 18:00:38;;;;;;;23.75;21.17;;;18.80;63.10;;;;;;5024792;28;20489;-61
2022/02/13 18:03:11;;;;;;;24.25;21.67;;;18.80;63.10;;;;;;5027163;28;20042;-61
2022/02/13 18:05:39;;;;;;;25.17;22.35;;;18.80;63.10;;;;;;5029367;28;20032;-61
2022/02/13 18:08:09;;;;;;;23.45;20.95;;;18.70;63.10;;;;;;5037209;28;20045;-61
2022/02/13 18:10:40;;;;;;;23.40;20.90;;;18.70;63.10;;;;;;5026026;28;20056;-61
2022/02/13 18:13:06;;;;;;;23.63;21.20;;;18.70;63.10;;;;;;5026431;28;20029;-60
2022/02/13 18:15:40;;;;;;;23.08;20.60;;;18.70;63.20;;;;;;5036002;28;20629;-60
2022/02/13 18:18:06;;;;;;;23.02;20.30;;;18.70;63.20;;;;;;5033672;28;20507;-60
2022/02/13 18:20:51;;;;;;;;;;;;;;;;;;;;;
2022/02/13 18:23:17;;;;;;;22.77;19.70;;;18.70;63.20;;;;;;5027659;28;20040;-60
2022/02/13 18:25:50;;;;;;;22.13;19.63;;;18.70;63.20;;;;;;5028226;28;20021;-60
2022/02/13 18:28:16;;;;;;;21.70;18.90;;;18.70;63.10;;;;;;5026664;28;20112;-61
2022/02/13 18:30:42;;;;;;;23.75;20.00;;;18.60;63.20;;;;;;5030339;28;20128;-61
2022/02/13 18:33:14;;;;;;;21.63;18.42;;;18.70;63.10;;;;;;5025744;28;20508;-60
2022/02/13 18:35:44;;;;;;;21.20;18.58;;;18.70;62.90;;;;;;5029371;28;20051;-60
2022/02/13 18:38:11;;;;;;;22.83;18.95;;;18.70;62.70;;;;;;5030643;28;20060;-61
2022/02/13 18:40:37;;;;;;;21.20;18.45;;;18.70;62.80;;;;;;5020808;28;20037;-60
2022/02/13 18:43:04;;;;;;;22.33;18.02;;;18.60;62.90;;;;;;5026174;28;20487;-62
2022/02/13 18:45:31;;;;;;;23.15;17.98;;;18.70;62.70;;;;;;5024109;28;20060;-62
2022/02/13 18:47:56;;;;;;;19.42;17.08;;;18.70;62.80;;;;;;5031383;28;20025;-62
2022/02/13 18:50:22;;;;;;;20.17;18.00;;;18.60;62.70;;;;;;5024987;28;20047;-66
2022/02/13 18:52:48;;;;;;;19.92;17.35;;;18.60;62.60;;;;;;5018465;28;20069;-61
2022/02/13 18:55:18;;;;;;;20.27;16.77;;;18.70;62.60;;;;;;5025026;28;20133;-62
2022/02/13 18:57:46;;;;;;;19.33;17.23;;;18.70;62.60;;;;;;5026393;28;20394;-61
2022/02/13 19:00:16;;;;;;;19.85;16.45;;;18.60;62.70;;;;;;5025944;28;20525;-62
2022/02/13 19:02:42;;;;;;;18.65;16.38;;;18.60;62.70;;;;;;5024726;28;20056;-62
2022/02/13 19:05:09;;;;;;;19.73;16.40;;;18.60;62.70;;;;;;5026888;28;20049;-62
2022/02/13 19:07:35;;;;;;;20.35;15.48;;;18.60;62.80;;;;;;5025960;28;20105;-63
2022/02/13 19:10:01;;;;;;;18.88;15.80;;;18.50;62.70;;;;;;5025804;28;20461;-62
2022/02/13 19:12:27;;;;;;;18.50;15.45;;;18.50;63.00;;;;;;5023717;28;20068;-59
2022/02/13 19:14:55;;;;;;;17.70;15.57;;;18.60;63.00;;;;;;5025421;28;20033;-61
2022/02/13 19:17:22;;;;;;;18.75;15.65;;;18.60;62.80;;;;;;5024171;28;20533;-61
2022/02/13 19:19:49;;;;;;;18.20;15.00;;;18.60;62.70;;;;;;5023217;28;20040;-61
2022/02/13 19:22:14;;;;;;;18.35;15.70;;;18.60;62.70;;;;;;5025749;28;20429;-63
2022/02/13 19:24:40;;;;;;;17.60;14.63;;;18.60;62.70;;;;;;5025374;28;20044;-62
2022/02/13 19:29:50;;;;;;;18.63;13.95;;;18.50;62.80;;;;;;5025988;28;20061;-62
2022/02/13 19:32:15;;;;;;;19.25;15.27;;;18.50;62.70;;;;;;5027264;28;20022;-62
2022/02/13 19:34:41;;;;;;;19.05;15.20;;;18.60;62.70;;;;;;5024909;28;20116;-62
2022/02/13 19:37:07;;;;;;;28.70;21.02;;;18.60;62.50;;;;;;5023362;28;20045;-61
2022/02/13 19:39:33;;;;;;;28.38;22.35;;;18.60;62.70;;;;;;5023920;28;20037;-62
2022/02/13 19:41:58;;;;;;;29.85;23.48;;;18.60;63.00;;;;;;5026882;28;20097;-61
2022/02/13 19:44:25;;;;;;;34.95;25.88;;;18.60;63.00;;;;;;5025666;28;20390;-61
2022/02/13 19:46:51;;;;;;;33.63;26.00;;;18.60;63.50;;;;;;5027556;28;20061;-62
2022/02/13 19:49:16;;;;;;;32.08;25.67;;;18.60;63.60;;;;;;5025903;28;20057;-61
2022/02/13 19:51:42;;;;;;;33.75;25.15;;;18.60;63.60;;;;;;5030462;28;20026;-61
2022/02/13 19:54:08;;;;;;;33.85;24.63;;;18.50;64.00;;;;;;5032271;28;21352;-61
2022/02/13 19:56:33;;;;;;;28.88;20.42;;;18.50;63.80;;;;;;5036731;28;20072;-61
2022/02/13 19:58:59;;;;;;;25.58;17.52;;;18.50;63.10;;;;;;5029974;28;20059;-60
2022/02/13 20:01:25;;;;;;;27.10;18.52;;;18.40;62.20;;;;;;5031813;28;20486;-60
2022/02/13 20:03:50;;;;;;;27.67;17.95;;;18.40;62.60;;;;;;5039641;28;20533;-61
2022/02/13 20:06:16;;;;;;;32.03;18.50;;;18.40;62.80;;;;;;5037204;28;20087;-61
2022/02/13 20:08:42;;;;;;;31.48;19.83;;;18.40;63.20;;;;;;5032564;28;20037;-61
2022/02/13 20:11:07;;;;;;;29.00;19.17;;;18.40;63.50;;;;;;5034439;28;20037;-60
2022/02/13 20:13:33;;;;;;;29.63;19.63;;;18.40;63.20;;;;;;5030664;28;20140;-61
2022/02/13 20:15:59;;;;;;;28.67;18.38;;;18.50;63.40;;;;;;5031129;28;20456;-61
2022/02/13 20:18:25;;;;;;;26.40;18.08;;;18.40;63.40;;;;;;5029203;28;20026;-62
2022/02/13 20:20:51;;;;;;;26.95;18.15;;;18.40;63.50;;;;;;5031385;28;20494;-61
2022/02/13 20:23:20;;;;;;;26.75;17.92;;;18.40;63.60;;;;;;5029030;28;20029;-60
2022/02/13 20:25:48;;;;;;;26.45;18.00;;;18.40;63.60;;;;;;5029594;28;20026;-61
2022/02/13 20:28:13;;;;;;;27.73;16.60;;;18.30;63.60;;;;;;5027530;28;20792;-61
2022/02/13 20:30:41;;;;;;;26.10;17.70;;;18.40;63.60;;;;;;5028655;28;20054;-61
2022/02/13 20:33:07;;;;;;;25.98;16.60;;;18.40;63.70;;;;;;5027940;28;20037;-61
2022/02/13 20:35:33;;;;;;;25.38;17.27;;;18.30;63.70;;;;;;5031635;28;20060;-60
2022/02/13 20:37:59;;;;;;;24.30;16.55;;;18.30;63.60;;;;;;5028914;28;20417;-60
2022/02/13 20:40:24;;;;;;;25.60;16.45;;;18.30;63.40;;;;;;5027784;28;20026;-60
2022/02/13 20:42:54;;;;;;;25.65;16.50;;;18.30;63.40;;;;;;5029254;28;20022;-61
2022/02/13 20:45:22;;;;;;;23.85;15.70;;;18.30;63.40;;;;;;5028309;28;20034;-60
2022/02/13 20:47:50;;;;;;;23.08;16.15;;;18.30;63.30;;;;;;5030224;28;20021;-61
2022/02/13 20:50:17;;;;;;;22.52;15.57;;;18.40;63.20;;;;;;5028330;28;20040;-61
2022/02/13 20:52:42;;;;;;;23.48;15.50;;;18.30;63.00;;;;;;5028372;28;20116;-60
2022/02/13 20:55:08;;;;;;;23.23;15.35;;;18.30;63.10;;;;;;5028479;28;20503;-61
2022/02/13 20:57:34;;;;;;;21.83;15.07;;;18.30;63.10;;;;;;5025644;28;20013;-61
2022/02/13 21:00:00;;;;;;;19.17;14.32;;;18.30;63.10;;;;;;5026206;28;20025;-60
2022/02/13 21:02:25;;;;;;;21.75;14.73;;;18.30;63.10;;;;;;5027957;28;20026;-62
2022/02/13 21:04:51;;;;;;;23.48;14.98;;;18.30;63.10;;;;;;5027297;28;20049;-60
2022/02/13 21:07:18;;;;;;;21.83;14.13;;;18.30;63.10;;;;;;5024772;28;20464;-62
2022/02/13 21:09:44;;;;;;;23.30;14.98;;;18.20;63.10;;;;;;5026551;28;20022;-61
2022/02/13 21:12:10;;;;;;;21.67;13.90;;;18.20;63.10;;;;;;5026752;28;20088;-62
2022/02/13 21:14:37;;;;;;;21.08;13.63;;;18.20;63.10;;;;;;5028400;28;20040;-61
2022/02/13 21:17:02;;;;;;;20.42;14.13;;;18.20;63.00;;;;;;5025078;28;20120;-61
2022/02/13 21:19:28;;;;;;;19.40;13.65;;;18.20;63.00;;;;;;5026491;28;20141;-62
2022/02/13 21:21:56;;;;;;;20.52;13.20;;;18.20;63.00;;;;;;5025647;28;20033;-61
2022/02/13 21:24:23;;;;;;;21.30;13.57;;;18.20;63.00;;;;;;5024457;28;20033;-61
2022/02/13 21:26:55;;;;;;;19.52;13.80;;;18.20;63.00;;;;;;5024153;28;20029;-61
2022/02/13 21:29:49;;;;;;;20.40;12.93;;;18.20;62.90;;;;;;5034929;28;20051;-61
2022/02/13 21:32:18;;;;;;;19.40;12.40;;;18.20;63.00;;;;;;5036449;28;20057;-61
2022/02/13 21:34:46;;;;;;;18.65;12.30;;;18.20;62.90;;;;;;5009485;28;20402;-58
2022/02/13 21:37:16;;;;;;;20.42;13.18;;;18.10;62.90;;;;;;5024197;28;20263;-60
2022/02/13 21:39:44;;;;;;;18.25;12.43;;;18.20;63.00;;;;;;5025236;28;20533;-58
2022/02/13 21:42:13;;;;;;;20.80;12.32;;;18.10;62.90;;;;;;5009721;28;20033;-58
2022/02/13 21:44:46;;;;;;;18.45;11.63;;;18.10;62.90;;;;;;5058361;28;20052;-59
2022/02/13 21:47:15;;;;;;;21.33;12.18;;;18.10;62.80;;;;;;5011847;28;20044;-59
2022/02/13 21:49:41;;;;;;;18.70;12.10;;;18.10;62.90;;;;;;5024933;28;20033;-60
2022/02/13 21:52:12;;;;;;;17.80;11.55;;;18.10;62.80;;;;;;5024895;28;20034;-59
2022/02/13 21:54:38;;;;;;;18.50;12.43;;;18.10;62.80;;;;;;5023076;28;20037;-59
2022/02/13 21:57:06;;;;;;;18.35;11.85;;;18.10;62.90;;;;;;5025325;28;20033;-60
2022/02/13 21:59:36;;;;;;;18.17;11.25;;;18.10;62.80;;;;;;5038794;28;20048;-61
2022/02/13 22:02:02;;;;;;;18.48;11.07;;;18.10;62.70;;;;;;5035569;28;20155;-60
2022/02/13 22:04:29;;;;;;;16.67;10.85;;;18.10;62.70;;;;;;5021249;28;20613;-58
2022/02/13 22:06:57;;;;;;;17.73;11.07;;;18.10;62.80;;;;;;5025762;28;20037;-58
2022/02/13 22:09:26;;;;;;;18.63;11.25;;;18.00;62.80;;;;;;5024926;28;20048;-59
2022/02/13 22:12:02;;;;;;;16.55;10.60;;;18.00;62.90;;;;;;5032519;28;20135;-60
2022/02/13 22:14:33;;;;;;;17.52;10.10;;;18.00;62.80;;;;;;5040492;28;20028;-60
2022/02/13 22:17:00;;;;;;;15.38;10.27;;;18.00;62.80;;;;;;5026398;28;20033;-60
2022/02/13 22:19:31;;;;;;;17.13;10.50;;;18.00;62.80;;;;;;5024551;28;20025;-60
2022/02/13 22:21:58;;;;;;;16.75;10.60;;;18.00;62.70;;;;;;5021793;28;20048;-59
2022/02/13 22:24:25;;;;;;;15.38;9.65;;;18.00;62.90;;;;;;5024073;28;20020;-59
2022/02/13 22:26:52;;;;;;;16.48;9.88;;;18.00;62.50;;;;;;5024802;28;20030;-59
2022/02/13 22:29:24;;;;;;;16.58;10.00;;;18.00;62.60;;;;;;5029291;28;20049;-60
2022/02/13 22:31:53;;;;;;;15.55;9.07;;;18.00;62.60;;;;;;5032751;28;20029;-61
2022/02/13 22:34:20;;;;;;;15.10;9.68;;;18.00;62.70;;;;;;5028967;28;20038;-59
2022/02/13 22:36:46;;;;;;;23.02;9.75;;;17.90;62.60;;;;;;5028956;28;20032;-61
2022/02/13 22:39:16;;;;;;;16.75;9.68;;;17.90;62.60;;;;;;5029363;28;20063;-59
2022/02/13 22:41:45;;;;;;;14.95;9.35;;;17.90;62.60;;;;;;5023501;28;20030;-59
2022/02/13 22:44:13;;;;;;;15.32;9.15;;;17.90;62.60;;;;;;5043357;28;20029;-59
2022/02/13 22:46:40;;;;;;;17.02;9.52;;;17.90;62.70;;;;;;5038931;28;20497;-58
2022/02/13 22:49:08;;;;;;;14.57;9.23;;;17.80;62.60;;;;;;5042302;28;20033;-61
2022/02/13 22:51:41;;;;;;;14.75;8.77;;;17.80;62.60;;;;;;5036192;28;20034;-61
2022/02/13 22:54:10;;;;;;;14.95;9.02;;;17.80;62.50;;;;;;5035905;28;20037;-61
2022/02/13 22:56:37;;;;;;;13.68;9.02;;;17.80;62.40;;;;;;5047385;28;20028;-59
2022/02/13 22:59:04;;;;;;;16.70;8.63;;;17.80;62.40;;;;;;5039523;28;20056;-59
2022/02/13 23:01:31;;;;;;;15.15;8.73;;;17.70;62.30;;;;;;5041530;28;20040;-59
2022/02/13 23:06:43;;;;;;;13.73;8.10;;;17.70;62.40;;;;;;5064097;28;20724;-58
2022/02/13 23:14:27;;;;;;;13.80;7.88;;;17.70;62.30;;;;;;5071632;28;20040;-58
2022/02/13 23:16:58;;;;;;;13.63;8.32;;;17.70;62.30;;;;;;5048061;28;20730;-59
2022/02/13 23:19:26;;;;;;;14.32;7.80;;;17.70;62.40;;;;;;5040339;28;20032;-59
2022/02/13 23:21:52;;;;;;;14.60;7.55;;;17.70;62.40;;;;;;5042002;28;20017;-58
2022/02/13 23:24:18;;;;;;;13.38;8.00;;;17.60;62.30;;;;;;5033454;28;20072;-59
2022/02/13 23:26:45;;;;;;;14.38;8.43;;;17.60;62.30;;;;;;5046954;28;20043;-58
2022/02/13 23:29:13;;;;;;;12.95;7.57;;;17.60;62.20;;;;;;5027625;28;20061;-59
2022/02/13 23:31:38;;;;;;;13.63;7.40;;;17.60;62.30;;;;;;5032585;28;20060;-59
2022/02/13 23:34:05;;;;;;;14.40;7.90;;;17.60;62.20;;;;;;5029897;28;20081;-58
2022/02/13 23:36:30;;;;;;;13.20;7.75;;;17.60;62.10;;;;;;5034727;28;20030;-60
2022/02/13 23:38:56;;;;;;;13.13;7.43;;;17.60;62.10;;;;;;5030080;28;20056;-61
2022/02/13 23:41:21;;;;;;;14.77;7.85;;;17.60;62.00;;;;;;5031022;28;20036;-61
2022/02/13 23:43:47;;;;;;;13.40;7.45;;;17.60;62.00;;;;;;5028114;28;20030;-60
2022/02/13 23:46:13;;;;;;;14.40;7.47;;;17.50;61.70;;;;;;5031133;28;20026;-60
2022/02/13 23:48:38;;;;;;;13.75;7.57;;;17.50;61.80;;;;;;5030199;28;20025;-60
2022/02/13 23:51:04;;;;;;;15.50;7.80;;;17.50;61.90;;;;;;5028101;28;20044;-60
2022/02/13 23:53:30;;;;;;;12.73;7.32;;;17.50;61.80;;;;;;5033843;28;20083;-61
2022/02/13 23:55:56;;;;;;;12.23;7.38;;;17.50;61.70;;;;;;5030740;28;20033;-61
2022/02/13 23:58:21;;;;;;;13.77;7.20;;;17.50;61.70;;;;;;5030991;28;20026;-61
